sensor_id;sensor_type;location;lat;lon;timestamp;P1;durP1;ratioP1;P2;durP2;ratioP2
2866;SDS011;1441;48.886;8.728;2023-05-07T00:00:36;5.27;;;1.77;;
2866;SDS011;1441;48.886;8.728;2023-05-07T00:03:02;4.23;;;1.83;;
2866;SDS011;1441;48.886;8.728;2023-05-07T00:05:28;4.83;;;1.97;;
2866;SDS011;1441;48.886;8.728;2023-05-07T00:07:53;1.80;;;1.50;;
2866;SDS011;1441;48.886;8.728;2023-05-07T00:10:19;1.43;;;1.33;;
2866;SDS011;1441;48.886;8.728;2023-05-07T00:12:44;2.27;;;2.07;;
2866;SDS011;1441;48.886;8.728;2023-05-07T00:15:10;4.40;;;1.63;;
2866;SDS011;1441;48.886;8.728;2023-05-07T00:17:36;4.30;;;1.90;;
2866;SDS011;1441;48.886;8.728;2023-05-07T00:20:02;2.73;;;1.90;;
2866;SDS011;1441;48.886;8.728;2023-05-07T00:22:29;1.87;;;1.70;;
2866;SDS011;1441;48.886;8.728;2023-05-07T00:24:55;1.73;;;1.63;;
2866;SDS011;1441;48.886;8.728;2023-05-07T00:27:21;3.70;;;1.53;;
2866;SDS011;1441;48.886;8.728;2023-05-07T00:29:47;3.43;;;2.27;;
2866;SDS011;1441;48.886;8.728;2023-05-07T00:32:13;3.33;;;1.83;;
2866;SDS011;1441;48.886;8.728;2023-05-07T00:34:39;2.20;;;2.00;;
2866;SDS011;1441;48.886;8.728;2023-05-07T00:37:04;2.20;;;2.00;;
2866;SDS011;1441;48.886;8.728;2023-05-07T00:39:32;2.50;;;2.10;;
2866;SDS011;1441;48.886;8.728;2023-05-07T00:41:58;1.90;;;1.80;;
2866;SDS011;1441;48.886;8.728;2023-05-07T00:44:23;6.07;;;2.33;;
2866;SDS011;1441;48.886;8.728;2023-05-07T00:46:50;2.50;;;2.30;;
2866;SDS011;1441;48.886;8.728;2023-05-07T00:49:15;4.20;;;2.40;;
2866;SDS011;1441;48.886;8.728;2023-05-07T00:51:41;4.00;;;2.10;;
2866;SDS011;1441;48.886;8.728;2023-05-07T00:54:07;3.50;;;2.30;;
2866;SDS011;1441;48.886;8.728;2023-05-07T00:56:34;1.73;;;1.63;;
2866;SDS011;1441;48.886;8.728;2023-05-07T00:59:01;2.10;;;2.00;;
2866;SDS011;1441;48.886;8.728;2023-05-07T01:01:27;1.90;;;1.73;;
2866;SDS011;1441;48.886;8.728;2023-05-07T01:03:53;4.10;;;2.00;;
2866;SDS011;1441;48.886;8.728;2023-05-07T01:06:18;2.00;;;1.90;;
2866;SDS011;1441;48.886;8.728;2023-05-07T01:08:46;2.40;;;1.97;;
2866;SDS011;1441;48.886;8.728;2023-05-07T01:11:12;3.17;;;1.93;;
2866;SDS011;1441;48.886;8.728;2023-05-07T01:13:38;3.20;;;2.40;;
2866;SDS011;1441;48.886;8.728;2023-05-07T01:16:05;4.90;;;2.00;;
2866;SDS011;1441;48.886;8.728;2023-05-07T01:18:31;3.20;;;1.90;;
2866;SDS011;1441;48.886;8.728;2023-05-07T01:20:59;2.30;;;1.90;;
2866;SDS011;1441;48.886;8.728;2023-05-07T01:23:28;3.87;;;1.90;;
2866;SDS011;1441;48.886;8.728;2023-05-07T01:25:55;8.50;;;2.03;;
2866;SDS011;1441;48.886;8.728;2023-05-07T01:28:21;2.43;;;1.77;;
2866;SDS011;1441;48.886;8.728;2023-05-07T01:31:00;4.50;;;2.20;;
2866;SDS011;1441;48.886;8.728;2023-05-07T01:33:29;2.10;;;2.00;;
2866;SDS011;1441;48.886;8.728;2023-05-07T01:36:00;2.33;;;2.13;;
2866;SDS011;1441;48.886;8.728;2023-05-07T01:38:28;2.50;;;1.60;;
2866;SDS011;1441;48.886;8.728;2023-05-07T01:40:54;2.57;;;2.37;;
2866;SDS011;1441;48.886;8.728;2023-05-07T01:43:20;1.87;;;1.70;;
2866;SDS011;1441;48.886;8.728;2023-05-07T01:45:46;3.90;;;2.20;;
2866;SDS011;1441;48.886;8.728;2023-05-07T01:48:14;2.80;;;2.57;;
2866;SDS011;1441;48.886;8.728;2023-05-07T01:50:40;5.37;;;3.30;;
2866;SDS011;1441;48.886;8.728;2023-05-07T01:53:07;4.53;;;3.27;;
2866;SDS011;1441;48.886;8.728;2023-05-07T01:55:33;3.33;;;3.00;;
2866;SDS011;1441;48.886;8.728;2023-05-07T01:57:58;3.47;;;3.23;;
2866;SDS011;1441;48.886;8.728;2023-05-07T02:00:24;5.57;;;3.40;;
2866;SDS011;1441;48.886;8.728;2023-05-07T02:02:50;8.00;;;3.00;;
2866;SDS011;1441;48.886;8.728;2023-05-07T02:05:16;4.07;;;2.80;;
2866;SDS011;1441;48.886;8.728;2023-05-07T02:07:42;2.40;;;2.20;;
2866;SDS011;1441;48.886;8.728;2023-05-07T02:10:07;5.90;;;2.80;;
2866;SDS011;1441;48.886;8.728;2023-05-07T02:12:33;5.70;;;2.60;;
2866;SDS011;1441;48.886;8.728;2023-05-07T02:14:59;2.43;;;2.10;;
2866;SDS011;1441;48.886;8.728;2023-05-07T02:17:24;2.80;;;2.60;;
2866;SDS011;1441;48.886;8.728;2023-05-07T02:19:50;4.20;;;2.93;;
2866;SDS011;1441;48.886;8.728;2023-05-07T02:22:16;6.43;;;2.77;;
2866;SDS011;1441;48.886;8.728;2023-05-07T02:24:42;9.00;;;3.03;;
2866;SDS011;1441;48.886;8.728;2023-05-07T02:27:07;3.70;;;2.80;;
2866;SDS011;1441;48.886;8.728;2023-05-07T02:29:33;3.83;;;3.07;;
2866;SDS011;1441;48.886;8.728;2023-05-07T02:31:58;2.83;;;2.50;;
2866;SDS011;1441;48.886;8.728;2023-05-07T02:34:24;2.70;;;2.53;;
2866;SDS011;1441;48.886;8.728;2023-05-07T02:36:49;3.00;;;2.60;;
2866;SDS011;1441;48.886;8.728;2023-05-07T02:39:16;3.10;;;2.67;;
2866;SDS011;1441;48.886;8.728;2023-05-07T02:41:41;2.70;;;2.50;;
2866;SDS011;1441;48.886;8.728;2023-05-07T02:44:07;3.07;;;2.17;;
2866;SDS011;1441;48.886;8.728;2023-05-07T02:46:32;3.93;;;2.20;;
2866;SDS011;1441;48.886;8.728;2023-05-07T02:48:58;6.93;;;2.40;;
2866;SDS011;1441;48.886;8.728;2023-05-07T02:51:24;5.63;;;4.30;;
2866;SDS011;1441;48.886;8.728;2023-05-07T02:53:50;7.40;;;3.03;;
2866;SDS011;1441;48.886;8.728;2023-05-07T02:56:16;3.40;;;3.07;;
2866;SDS011;1441;48.886;8.728;2023-05-07T02:58:42;3.00;;;2.80;;
2866;SDS011;1441;48.886;8.728;2023-05-07T03:01:07;5.80;;;3.27;;
2866;SDS011;1441;48.886;8.728;2023-05-07T03:03:33;7.47;;;2.80;;
2866;SDS011;1441;48.886;8.728;2023-05-07T03:06:00;3.57;;;2.83;;
2866;SDS011;1441;48.886;8.728;2023-05-07T03:08:25;4.17;;;2.80;;
2866;SDS011;1441;48.886;8.728;2023-05-07T03:10:51;4.23;;;2.67;;
2866;SDS011;1441;48.886;8.728;2023-05-07T03:13:17;3.43;;;3.17;;
2866;SDS011;1441;48.886;8.728;2023-05-07T03:15:43;3.03;;;2.60;;
2866;SDS011;1441;48.886;8.728;2023-05-07T03:18:08;2.53;;;2.33;;
2866;SDS011;1441;48.886;8.728;2023-05-07T03:20:34;2.60;;;2.40;;
2866;SDS011;1441;48.886;8.728;2023-05-07T03:23:01;3.20;;;2.70;;
2866;SDS011;1441;48.886;8.728;2023-05-07T03:25:27;4.10;;;2.50;;
2866;SDS011;1441;48.886;8.728;2023-05-07T03:27:52;5.63;;;2.30;;
2866;SDS011;1441;48.886;8.728;2023-05-07T03:30:18;2.70;;;2.50;;
2866;SDS011;1441;48.886;8.728;2023-05-07T03:32:43;3.27;;;3.07;;
2866;SDS011;1441;48.886;8.728;2023-05-07T03:35:09;3.53;;;2.97;;
2866;SDS011;1441;48.886;8.728;2023-05-07T03:37:35;3.30;;;3.00;;
2866;SDS011;1441;48.886;8.728;2023-05-07T03:40:00;2.97;;;2.73;;
2866;SDS011;1441;48.886;8.728;2023-05-07T03:42:27;4.67;;;2.90;;
2866;SDS011;1441;48.886;8.728;2023-05-07T03:44:53;2.43;;;2.23;;
2866;SDS011;1441;48.886;8.728;2023-05-07T03:47:19;2.63;;;2.43;;
2866;SDS011;1441;48.886;8.728;2023-05-07T03:49:44;5.97;;;2.70;;
2866;SDS011;1441;48.886;8.728;2023-05-07T03:52:10;4.50;;;2.97;;
2866;SDS011;1441;48.886;8.728;2023-05-07T03:54:36;7.23;;;2.77;;
2866;SDS011;1441;48.886;8.728;2023-05-07T03:57:01;4.40;;;2.90;;
2866;SDS011;1441;48.886;8.728;2023-05-07T03:59:27;7.53;;;2.70;;
2866;SDS011;1441;48.886;8.728;2023-05-07T04:01:52;4.60;;;3.17;;
2866;SDS011;1441;48.886;8.728;2023-05-07T04:04:18;3.90;;;2.80;;
2866;SDS011;1441;48.886;8.728;2023-05-07T04:06:45;3.73;;;2.80;;
2866;SDS011;1441;48.886;8.728;2023-05-07T04:09:10;6.53;;;2.60;;
2866;SDS011;1441;48.886;8.728;2023-05-07T04:11:36;5.80;;;2.97;;
2866;SDS011;1441;48.886;8.728;2023-05-07T04:14:01;6.60;;;3.57;;
2866;SDS011;1441;48.886;8.728;2023-05-07T04:16:27;6.03;;;3.17;;
2866;SDS011;1441;48.886;8.728;2023-05-07T04:18:53;3.77;;;2.90;;
2866;SDS011;1441;48.886;8.728;2023-05-07T04:21:19;2.83;;;2.63;;
2866;SDS011;1441;48.886;8.728;2023-05-07T04:23:46;3.63;;;3.10;;
2866;SDS011;1441;48.886;8.728;2023-05-07T04:26:13;5.60;;;2.93;;
2866;SDS011;1441;48.886;8.728;2023-05-07T04:28:38;3.73;;;2.73;;
2866;SDS011;1441;48.886;8.728;2023-05-07T04:31:05;4.90;;;2.80;;
2866;SDS011;1441;48.886;8.728;2023-05-07T04:33:31;7.90;;;2.93;;
2866;SDS011;1441;48.886;8.728;2023-05-07T04:35:56;3.43;;;3.20;;
2866;SDS011;1441;48.886;8.728;2023-05-07T04:38:22;4.13;;;3.20;;
2866;SDS011;1441;48.886;8.728;2023-05-07T04:40:48;6.20;;;3.07;;
2866;SDS011;1441;48.886;8.728;2023-05-07T04:43:14;4.57;;;3.60;;
2866;SDS011;1441;48.886;8.728;2023-05-07T04:45:41;3.47;;;3.17;;
2866;SDS011;1441;48.886;8.728;2023-05-07T04:48:08;4.77;;;3.67;;
2866;SDS011;1441;48.886;8.728;2023-05-07T04:50:34;11.67;;;2.80;;
2866;SDS011;1441;48.886;8.728;2023-05-07T04:53:00;4.90;;;3.13;;
2866;SDS011;1441;48.886;8.728;2023-05-07T04:55:26;8.47;;;3.40;;
2866;SDS011;1441;48.886;8.728;2023-05-07T04:57:51;8.37;;;3.40;;
2866;SDS011;1441;48.886;8.728;2023-05-07T05:00:17;3.43;;;3.13;;
2866;SDS011;1441;48.886;8.728;2023-05-07T05:02:44;4.37;;;2.70;;
2866;SDS011;1441;48.886;8.728;2023-05-07T05:05:10;4.33;;;3.93;;
2866;SDS011;1441;48.886;8.728;2023-05-07T05:07:36;3.70;;;2.80;;
2866;SDS011;1441;48.886;8.728;2023-05-07T05:10:02;3.80;;;3.50;;
2866;SDS011;1441;48.886;8.728;2023-05-07T05:12:28;3.93;;;2.90;;
2866;SDS011;1441;48.886;8.728;2023-05-07T05:14:55;3.37;;;3.17;;
2866;SDS011;1441;48.886;8.728;2023-05-07T05:17:20;4.27;;;3.50;;
2866;SDS011;1441;48.886;8.728;2023-05-07T05:19:46;3.33;;;3.03;;
2866;SDS011;1441;48.886;8.728;2023-05-07T05:22:11;5.33;;;3.27;;
2866;SDS011;1441;48.886;8.728;2023-05-07T05:24:37;5.43;;;3.70;;
2866;SDS011;1441;48.886;8.728;2023-05-07T05:27:02;4.70;;;3.57;;
2866;SDS011;1441;48.886;8.728;2023-05-07T05:29:28;5.73;;;3.20;;
2866;SDS011;1441;48.886;8.728;2023-05-07T05:31:55;4.47;;;2.70;;
2866;SDS011;1441;48.886;8.728;2023-05-07T05:34:21;3.37;;;3.13;;
2866;SDS011;1441;48.886;8.728;2023-05-07T05:36:47;3.40;;;3.10;;
2866;SDS011;1441;48.886;8.728;2023-05-07T05:39:12;15.70;;;3.60;;
2866;SDS011;1441;48.886;8.728;2023-05-07T05:41:39;9.20;;;3.37;;
2866;SDS011;1441;48.886;8.728;2023-05-07T05:44:04;13.40;;;4.20;;
2866;SDS011;1441;48.886;8.728;2023-05-07T05:46:30;2.00;;;1.90;;
2866;SDS011;1441;48.886;8.728;2023-05-07T05:48:57;2.93;;;2.57;;
2866;SDS011;1441;48.886;8.728;2023-05-07T05:51:23;3.77;;;2.57;;
2866;SDS011;1441;48.886;8.728;2023-05-07T05:53:50;2.40;;;2.20;;
2866;SDS011;1441;48.886;8.728;2023-05-07T05:56:15;3.03;;;2.30;;
2866;SDS011;1441;48.886;8.728;2023-05-07T05:58:41;1.57;;;1.47;;
2866;SDS011;1441;48.886;8.728;2023-05-07T06:01:07;1.90;;;1.80;;
2866;SDS011;1441;48.886;8.728;2023-05-07T06:03:34;1.90;;;1.80;;
2866;SDS011;1441;48.886;8.728;2023-05-07T06:05:59;1.47;;;1.37;;
2866;SDS011;1441;48.886;8.728;2023-05-07T06:08:26;3.83;;;1.20;;
2866;SDS011;1441;48.886;8.728;2023-05-07T06:10:54;2.90;;;1.43;;
2866;SDS011;1441;48.886;8.728;2023-05-07T06:13:20;2.37;;;2.23;;
2866;SDS011;1441;48.886;8.728;2023-05-07T06:15:48;4.30;;;2.57;;
2866;SDS011;1441;48.886;8.728;2023-05-07T06:18:15;3.03;;;1.40;;
2866;SDS011;1441;48.886;8.728;2023-05-07T06:20:40;1.73;;;1.20;;
2866;SDS011;1441;48.886;8.728;2023-05-07T06:23:06;2.00;;;1.50;;
2866;SDS011;1441;48.886;8.728;2023-05-07T06:25:31;1.50;;;1.43;;
2866;SDS011;1441;48.886;8.728;2023-05-07T06:27:57;1.67;;;1.40;;
2866;SDS011;1441;48.886;8.728;2023-05-07T06:30:23;1.57;;;1.43;;
2866;SDS011;1441;48.886;8.728;2023-05-07T06:32:48;1.80;;;1.13;;
2866;SDS011;1441;48.886;8.728;2023-05-07T06:35:14;2.40;;;1.23;;
2866;SDS011;1441;48.886;8.728;2023-05-07T06:37:40;4.33;;;2.00;;
2866;SDS011;1441;48.886;8.728;2023-05-07T06:40:07;3.60;;;1.50;;
2866;SDS011;1441;48.886;8.728;2023-05-07T06:42:35;0.90;;;0.90;;
2866;SDS011;1441;48.886;8.728;2023-05-07T06:45:00;1.80;;;1.50;;
2866;SDS011;1441;48.886;8.728;2023-05-07T06:47:26;1.70;;;1.33;;
2866;SDS011;1441;48.886;8.728;2023-05-07T06:49:52;1.50;;;1.40;;
2866;SDS011;1441;48.886;8.728;2023-05-07T06:52:17;1.33;;;1.23;;
2866;SDS011;1441;48.886;8.728;2023-05-07T06:54:43;1.77;;;1.30;;
2866;SDS011;1441;48.886;8.728;2023-05-07T06:57:08;4.90;;;1.23;;
2866;SDS011;1441;48.886;8.728;2023-05-07T06:59:34;1.43;;;1.10;;
2866;SDS011;1441;48.886;8.728;2023-05-07T07:01:59;1.03;;;1.03;;
2866;SDS011;1441;48.886;8.728;2023-05-07T07:04:25;2.60;;;1.23;;
2866;SDS011;1441;48.886;8.728;2023-05-07T07:06:52;1.13;;;1.07;;
2866;SDS011;1441;48.886;8.728;2023-05-07T07:09:19;1.33;;;1.23;;
2866;SDS011;1441;48.886;8.728;2023-05-07T07:11:44;2.80;;;1.60;;
2866;SDS011;1441;48.886;8.728;2023-05-07T07:14:10;2.60;;;1.30;;
2866;SDS011;1441;48.886;8.728;2023-05-07T07:16:35;1.60;;;1.50;;
2866;SDS011;1441;48.886;8.728;2023-05-07T07:19:01;2.30;;;1.00;;
2866;SDS011;1441;48.886;8.728;2023-05-07T07:21:26;1.63;;;1.47;;
2866;SDS011;1441;48.886;8.728;2023-05-07T07:23:52;2.67;;;1.50;;
2866;SDS011;1441;48.886;8.728;2023-05-07T07:26:18;3.30;;;1.83;;
2866;SDS011;1441;48.886;8.728;2023-05-07T07:28:43;1.60;;;1.50;;
2866;SDS011;1441;48.886;8.728;2023-05-07T07:31:10;1.73;;;1.63;;
2866;SDS011;1441;48.886;8.728;2023-05-07T07:33:36;2.80;;;1.53;;
2866;SDS011;1441;48.886;8.728;2023-05-07T07:36:01;4.17;;;2.00;;
2866;SDS011;1441;48.886;8.728;2023-05-07T07:38:27;4.23;;;1.87;;
2866;SDS011;1441;48.886;8.728;2023-05-07T07:40:53;6.73;;;1.83;;
2866;SDS011;1441;48.886;8.728;2023-05-07T07:43:18;1.83;;;1.70;;
2866;SDS011;1441;48.886;8.728;2023-05-07T07:45:44;2.17;;;2.07;;
2866;SDS011;1441;48.886;8.728;2023-05-07T07:48:10;1.50;;;1.40;;
2866;SDS011;1441;48.886;8.728;2023-05-07T07:50:36;4.63;;;1.93;;
2866;SDS011;1441;48.886;8.728;2023-05-07T07:53:02;1.47;;;1.37;;
2866;SDS011;1441;48.886;8.728;2023-05-07T07:55:29;1.90;;;1.80;;
2866;SDS011;1441;48.886;8.728;2023-05-07T07:57:56;1.80;;;1.70;;
2866;SDS011;1441;48.886;8.728;2023-05-07T08:00:22;2.10;;;2.00;;
2866;SDS011;1441;48.886;8.728;2023-05-07T08:02:48;6.23;;;1.60;;
2866;SDS011;1441;48.886;8.728;2023-05-07T08:05:17;2.57;;;1.50;;
2866;SDS011;1441;48.886;8.728;2023-05-07T08:07:43;2.07;;;1.40;;
2866;SDS011;1441;48.886;8.728;2023-05-07T08:10:15;1.83;;;1.67;;
2866;SDS011;1441;48.886;8.728;2023-05-07T08:13:08;4.73;;;1.73;;
2866;SDS011;1441;48.886;8.728;2023-05-07T08:15:39;1.83;;;1.73;;
2866;SDS011;1441;48.886;8.728;2023-05-07T08:18:05;2.70;;;1.20;;
2866;SDS011;1441;48.886;8.728;2023-05-07T08:20:30;3.57;;;1.50;;
2866;SDS011;1441;48.886;8.728;2023-05-07T08:22:56;1.40;;;1.30;;
2866;SDS011;1441;48.886;8.728;2023-05-07T08:25:21;3.60;;;1.70;;
2866;SDS011;1441;48.886;8.728;2023-05-07T08:27:47;1.63;;;1.30;;
2866;SDS011;1441;48.886;8.728;2023-05-07T08:30:13;1.40;;;1.30;;
2866;SDS011;1441;48.886;8.728;2023-05-07T08:32:39;3.93;;;1.80;;
2866;SDS011;1441;48.886;8.728;2023-05-07T08:35:05;1.43;;;1.33;;
2866;SDS011;1441;48.886;8.728;2023-05-07T08:37:30;1.73;;;1.43;;
2866;SDS011;1441;48.886;8.728;2023-05-07T08:39:56;1.67;;;1.57;;
2866;SDS011;1441;48.886;8.728;2023-05-07T08:42:23;2.57;;;1.53;;
2866;SDS011;1441;48.886;8.728;2023-05-07T08:44:50;1.70;;;1.60;;
2866;SDS011;1441;48.886;8.728;2023-05-07T08:47:20;2.97;;;1.30;;
2866;SDS011;1441;48.886;8.728;2023-05-07T08:49:47;2.00;;;1.10;;
2866;SDS011;1441;48.886;8.728;2023-05-07T08:52:14;1.47;;;1.27;;
2866;SDS011;1441;48.886;8.728;2023-05-07T08:54:40;1.50;;;1.30;;
2866;SDS011;1441;48.886;8.728;2023-05-07T08:57:05;1.70;;;1.10;;
2866;SDS011;1441;48.886;8.728;2023-05-07T08:59:31;1.77;;;1.47;;
2866;SDS011;1441;48.886;8.728;2023-05-07T09:01:57;2.10;;;1.20;;
2866;SDS011;1441;48.886;8.728;2023-05-07T09:04:22;0.93;;;0.93;;
2866;SDS011;1441;48.886;8.728;2023-05-07T09:06:48;1.00;;;1.00;;
2866;SDS011;1441;48.886;8.728;2023-05-07T09:09:16;1.10;;;1.10;;
2866;SDS011;1441;48.886;8.728;2023-05-07T09:11:43;3.60;;;1.13;;
2866;SDS011;1441;48.886;8.728;2023-05-07T09:14:09;1.40;;;1.03;;
2866;SDS011;1441;48.886;8.728;2023-05-07T09:16:34;1.30;;;1.20;;
2866;SDS011;1441;48.886;8.728;2023-05-07T09:19:00;2.80;;;1.20;;
2866;SDS011;1441;48.886;8.728;2023-05-07T09:21:26;5.10;;;1.20;;
2866;SDS011;1441;48.886;8.728;2023-05-07T09:23:52;3.37;;;1.23;;
2866;SDS011;1441;48.886;8.728;2023-05-07T09:26:22;1.20;;;1.10;;
2866;SDS011;1441;48.886;8.728;2023-05-07T09:28:49;2.43;;;1.00;;
2866;SDS011;1441;48.886;8.728;2023-05-07T09:31:16;2.30;;;1.00;;
2866;SDS011;1441;48.886;8.728;2023-05-07T09:33:41;1.03;;;1.03;;
2866;SDS011;1441;48.886;8.728;2023-05-07T09:36:08;1.97;;;1.40;;
2866;SDS011;1441;48.886;8.728;2023-05-07T09:38:35;1.20;;;1.20;;
2866;SDS011;1441;48.886;8.728;2023-05-07T09:43:35;1.80;;;1.70;;
2866;SDS011;1441;48.886;8.728;2023-05-07T09:46:03;1.77;;;1.40;;
2866;SDS011;1441;48.886;8.728;2023-05-07T09:48:31;2.47;;;1.47;;
2866;SDS011;1441;48.886;8.728;2023-05-07T09:51:01;1.40;;;1.30;;
2866;SDS011;1441;48.886;8.728;2023-05-07T09:53:29;3.40;;;1.70;;
2866;SDS011;1441;48.886;8.728;2023-05-07T09:55:56;1.63;;;1.63;;
2866;SDS011;1441;48.886;8.728;2023-05-07T09:58:23;1.53;;;1.53;;
2866;SDS011;1441;48.886;8.728;2023-05-07T10:00:50;4.53;;;1.60;;
2866;SDS011;1441;48.886;8.728;2023-05-07T10:03:17;2.17;;;1.60;;
2866;SDS011;1441;48.886;8.728;2023-05-07T10:05:44;1.50;;;1.40;;
2866;SDS011;1441;48.886;8.728;2023-05-07T10:08:12;2.03;;;1.83;;
2866;SDS011;1441;48.886;8.728;2023-05-07T10:10:38;2.20;;;1.40;;
2866;SDS011;1441;48.886;8.728;2023-05-07T10:13:04;3.03;;;1.70;;
2866;SDS011;1441;48.886;8.728;2023-05-07T10:15:35;2.77;;;1.67;;
2866;SDS011;1441;48.886;8.728;2023-05-07T10:18:01;3.17;;;2.20;;
2866;SDS011;1441;48.886;8.728;2023-05-07T10:20:28;4.27;;;2.37;;
2866;SDS011;1441;48.886;8.728;2023-05-07T10:22:54;3.17;;;2.07;;
2866;SDS011;1441;48.886;8.728;2023-05-07T10:25:23;2.30;;;2.10;;
2866;SDS011;1441;48.886;8.728;2023-05-07T10:27:53;2.00;;;1.83;;
2866;SDS011;1441;48.886;8.728;2023-05-07T10:30:26;1.87;;;1.77;;
2866;SDS011;1441;48.886;8.728;2023-05-07T10:33:01;2.27;;;1.50;;
2866;SDS011;1441;48.886;8.728;2023-05-07T10:35:31;2.90;;;1.90;;
2866;SDS011;1441;48.886;8.728;2023-05-07T10:38:02;2.87;;;2.60;;
2866;SDS011;1441;48.886;8.728;2023-05-07T10:40:28;3.00;;;2.23;;
2866;SDS011;1441;48.886;8.728;2023-05-07T10:42:59;2.13;;;1.93;;
2866;SDS011;1441;48.886;8.728;2023-05-07T10:45:26;1.73;;;1.53;;
2866;SDS011;1441;48.886;8.728;2023-05-07T10:48:14;2.03;;;1.83;;
2866;SDS011;1441;48.886;8.728;2023-05-07T10:50:40;2.10;;;1.90;;
2866;SDS011;1441;48.886;8.728;2023-05-07T10:55:43;3.70;;;1.90;;
2866;SDS011;1441;48.886;8.728;2023-05-07T11:00:47;3.37;;;2.57;;
2866;SDS011;1441;48.886;8.728;2023-05-07T11:03:13;1.90;;;1.80;;
2866;SDS011;1441;48.886;8.728;2023-05-07T11:05:40;1.80;;;1.70;;
2866;SDS011;1441;48.886;8.728;2023-05-07T11:08:06;1.80;;;1.70;;
2866;SDS011;1441;48.886;8.728;2023-05-07T11:10:53;1.83;;;1.70;;
2866;SDS011;1441;48.886;8.728;2023-05-07T11:13:40;1.77;;;1.60;;
2866;SDS011;1441;48.886;8.728;2023-05-07T11:18:49;2.97;;;2.20;;
2866;SDS011;1441;48.886;8.728;2023-05-07T11:21:32;2.63;;;2.03;;
2866;SDS011;1441;48.886;8.728;2023-05-07T11:24:01;2.53;;;2.33;;
2866;SDS011;1441;48.886;8.728;2023-05-07T11:26:31;7.03;;;2.27;;
2866;SDS011;1441;48.886;8.728;2023-05-07T11:29:13;3.70;;;2.13;;
2866;SDS011;1441;48.886;8.728;2023-05-07T11:31:40;3.00;;;2.07;;
2866;SDS011;1441;48.886;8.728;2023-05-07T11:34:06;2.00;;;1.80;;
2866;SDS011;1441;48.886;8.728;2023-05-07T11:36:32;2.60;;;1.80;;
2866;SDS011;1441;48.886;8.728;2023-05-07T11:38:58;1.93;;;1.83;;
2866;SDS011;1441;48.886;8.728;2023-05-07T11:41:34;1.70;;;1.60;;
2866;SDS011;1441;48.886;8.728;2023-05-07T11:44:02;2.50;;;2.00;;
2866;SDS011;1441;48.886;8.728;2023-05-07T11:46:28;2.80;;;1.93;;
2866;SDS011;1441;48.886;8.728;2023-05-07T11:48:54;7.50;;;1.90;;
2866;SDS011;1441;48.886;8.728;2023-05-07T11:51:22;3.57;;;2.00;;
2866;SDS011;1441;48.886;8.728;2023-05-07T11:53:49;2.10;;;1.80;;
2866;SDS011;1441;48.886;8.728;2023-05-07T11:56:16;1.67;;;1.57;;
2866;SDS011;1441;48.886;8.728;2023-05-07T11:58:43;2.37;;;2.03;;
2866;SDS011;1441;48.886;8.728;2023-05-07T12:01:09;2.27;;;2.07;;
2866;SDS011;1441;48.886;8.728;2023-05-07T12:03:37;1.70;;;1.60;;
2866;SDS011;1441;48.886;8.728;2023-05-07T12:06:07;2.53;;;2.10;;
2866;SDS011;1441;48.886;8.728;2023-05-07T12:08:35;2.10;;;1.90;;
2866;SDS011;1441;48.886;8.728;2023-05-07T12:11:02;4.47;;;1.60;;
2866;SDS011;1441;48.886;8.728;2023-05-07T12:13:28;1.60;;;1.50;;
2866;SDS011;1441;48.886;8.728;2023-05-07T12:15:55;3.27;;;1.77;;
2866;SDS011;1441;48.886;8.728;2023-05-07T12:18:21;1.97;;;1.87;;
2866;SDS011;1441;48.886;8.728;2023-05-07T12:20:48;2.07;;;1.97;;
2866;SDS011;1441;48.886;8.728;2023-05-07T12:23:15;6.30;;;1.90;;
2866;SDS011;1441;48.886;8.728;2023-05-07T12:25:41;3.03;;;1.63;;
2866;SDS011;1441;48.886;8.728;2023-05-07T12:28:18;2.20;;;1.07;;
2866;SDS011;1441;48.886;8.728;2023-05-07T12:30:44;1.90;;;0.90;;
2866;SDS011;1441;48.886;8.728;2023-05-07T12:33:11;2.27;;;1.00;;
2866;SDS011;1441;48.886;8.728;2023-05-07T12:35:41;1.47;;;1.20;;
2866;SDS011;1441;48.886;8.728;2023-05-07T12:38:08;1.20;;;1.10;;
2866;SDS011;1441;48.886;8.728;2023-05-07T12:43:06;3.60;;;1.70;;
2866;SDS011;1441;48.886;8.728;2023-05-07T12:45:38;6.73;;;2.47;;
2866;SDS011;1441;48.886;8.728;2023-05-07T12:48:06;4.37;;;2.23;;
2866;SDS011;1441;48.886;8.728;2023-05-07T12:50:34;7.17;;;2.40;;
2866;SDS011;1441;48.886;8.728;2023-05-07T12:53:00;7.63;;;3.03;;
2866;SDS011;1441;48.886;8.728;2023-05-07T12:55:30;6.23;;;2.87;;
2866;SDS011;1441;48.886;8.728;2023-05-07T12:57:56;3.00;;;1.80;;
2866;SDS011;1441;48.886;8.728;2023-05-07T13:00:34;9.47;;;2.60;;
2866;SDS011;1441;48.886;8.728;2023-05-07T13:03:03;10.87;;;3.03;;
2866;SDS011;1441;48.886;8.728;2023-05-07T13:05:29;10.30;;;2.87;;
2866;SDS011;1441;48.886;8.728;2023-05-07T13:07:56;7.63;;;2.47;;
2866;SDS011;1441;48.886;8.728;2023-05-07T13:10:25;4.90;;;2.30;;
2866;SDS011;1441;48.886;8.728;2023-05-07T13:12:51;9.80;;;3.90;;
2866;SDS011;1441;48.886;8.728;2023-05-07T13:15:17;18.17;;;4.50;;
2866;SDS011;1441;48.886;8.728;2023-05-07T13:17:43;8.17;;;3.77;;
2866;SDS011;1441;48.886;8.728;2023-05-07T13:20:09;6.73;;;2.90;;
2866;SDS011;1441;48.886;8.728;2023-05-07T13:22:36;8.37;;;4.20;;
2866;SDS011;1441;48.886;8.728;2023-05-07T13:25:02;6.93;;;3.77;;
2866;SDS011;1441;48.886;8.728;2023-05-07T13:27:27;6.40;;;3.80;;
2866;SDS011;1441;48.886;8.728;2023-05-07T13:29:55;3.20;;;2.90;;
2866;SDS011;1441;48.886;8.728;2023-05-07T13:32:21;6.77;;;2.70;;
2866;SDS011;1441;48.886;8.728;2023-05-07T13:34:46;2.90;;;2.60;;
2866;SDS011;1441;48.886;8.728;2023-05-07T13:37:12;4.67;;;2.93;;
2866;SDS011;1441;48.886;8.728;2023-05-07T13:39:38;4.07;;;2.30;;
2866;SDS011;1441;48.886;8.728;2023-05-07T13:42:03;3.30;;;2.60;;
2866;SDS011;1441;48.886;8.728;2023-05-07T13:44:29;7.23;;;3.10;;
2866;SDS011;1441;48.886;8.728;2023-05-07T13:46:54;6.90;;;4.00;;
2866;SDS011;1441;48.886;8.728;2023-05-07T13:49:20;16.17;;;5.60;;
2866;SDS011;1441;48.886;8.728;2023-05-07T13:51:46;7.23;;;4.33;;
2866;SDS011;1441;48.886;8.728;2023-05-07T13:54:11;3.73;;;2.43;;
2866;SDS011;1441;48.886;8.728;2023-05-07T13:56:37;5.33;;;3.60;;
2866;SDS011;1441;48.886;8.728;2023-05-07T13:59:04;5.03;;;2.50;;
2866;SDS011;1441;48.886;8.728;2023-05-07T14:01:30;3.00;;;2.70;;
2866;SDS011;1441;48.886;8.728;2023-05-07T14:03:56;2.03;;;1.90;;
2866;SDS011;1441;48.886;8.728;2023-05-07T14:06:24;6.57;;;2.70;;
2866;SDS011;1441;48.886;8.728;2023-05-07T14:08:50;2.83;;;1.70;;
2866;SDS011;1441;48.886;8.728;2023-05-07T14:11:16;3.10;;;1.93;;
2866;SDS011;1441;48.886;8.728;2023-05-07T14:13:42;4.37;;;1.53;;
2866;SDS011;1441;48.886;8.728;2023-05-07T14:16:07;4.30;;;2.10;;
2866;SDS011;1441;48.886;8.728;2023-05-07T14:18:33;4.00;;;1.97;;
2866;SDS011;1441;48.886;8.728;2023-05-07T14:20:59;2.60;;;1.17;;
2866;SDS011;1441;48.886;8.728;2023-05-07T14:23:25;3.70;;;1.83;;
2866;SDS011;1441;48.886;8.728;2023-05-07T14:25:52;4.57;;;1.50;;
2866;SDS011;1441;48.886;8.728;2023-05-07T14:28:18;1.80;;;1.70;;
2866;SDS011;1441;48.886;8.728;2023-05-07T14:30:44;2.20;;;1.37;;
2866;SDS011;1441;48.886;8.728;2023-05-07T14:33:09;1.77;;;1.67;;
2866;SDS011;1441;48.886;8.728;2023-05-07T14:35:35;1.17;;;1.10;;
2866;SDS011;1441;48.886;8.728;2023-05-07T14:38:00;1.53;;;1.43;;
2866;SDS011;1441;48.886;8.728;2023-05-07T14:40:26;3.60;;;1.83;;
2866;SDS011;1441;48.886;8.728;2023-05-07T14:42:52;1.97;;;1.37;;
2866;SDS011;1441;48.886;8.728;2023-05-07T14:45:17;4.93;;;1.97;;
2866;SDS011;1441;48.886;8.728;2023-05-07T14:47:43;7.30;;;2.30;;
2866;SDS011;1441;48.886;8.728;2023-05-07T14:50:08;1.90;;;1.73;;
2866;SDS011;1441;48.886;8.728;2023-05-07T14:52:34;2.83;;;2.30;;
2866;SDS011;1441;48.886;8.728;2023-05-07T14:55:00;2.20;;;2.00;;
2866;SDS011;1441;48.886;8.728;2023-05-07T14:57:25;7.67;;;1.90;;
2866;SDS011;1441;48.886;8.728;2023-05-07T14:59:51;1.87;;;1.70;;
2866;SDS011;1441;48.886;8.728;2023-05-07T15:02:16;2.13;;;1.80;;
2866;SDS011;1441;48.886;8.728;2023-05-07T15:04:43;2.20;;;1.47;;
2866;SDS011;1441;48.886;8.728;2023-05-07T15:07:12;2.00;;;1.80;;
2866;SDS011;1441;48.886;8.728;2023-05-07T15:09:42;3.70;;;1.90;;
2866;SDS011;1441;48.886;8.728;2023-05-07T15:12:08;15.60;;;11.43;;
2866;SDS011;1441;48.886;8.728;2023-05-07T15:14:33;5.27;;;3.03;;
2866;SDS011;1441;48.886;8.728;2023-05-07T15:16:59;2.60;;;2.00;;
2866;SDS011;1441;48.886;8.728;2023-05-07T15:19:25;2.43;;;1.90;;
2866;SDS011;1441;48.886;8.728;2023-05-07T15:21:54;4.53;;;2.57;;
2866;SDS011;1441;48.886;8.728;2023-05-07T15:24:22;3.43;;;1.97;;